Fure West — OZ2100 — position and weather

sailwx.info

Track history (hours):
 
Tides and Currents Weather Stations Pressure Air Temp Water Temp Dewpoint Dewpoint Depression Visibility Wind Speed Wind Dir Waves Ship Positions

Fure West

Last reported at 2016-Jul-28 02:33 UTC. Time now 2016-Jul-28 02:59 UTC.
Position N 55°04' E 017°51'.

Length 144 m; draft 6.5 m.

MMSI: 231775000.

Date/timePositionNaut miles runAvg speedWind from/ knotsBaromVisibWave heightAir tempDewpointWater temp
2016-Jul-28 02:33N 55°04' E 017°51'6811.3
2016-Jul-27 20:32N 55°18' E 015°55'1111.1
2016-Jul-27 19:33N 55°20' E 015°36'1111.0
2016-Jul-27 18:34N 55°22' E 015°17'1111.0
2016-Jul-27 17:33N 55°23' E 014°58'1211.8
2016-Jul-27 16:34N 55°21' E 014°37'1312.8
2016-Jul-27 15:34N 55°12' E 014°23'1110.9
2016-Jul-27 14:33N 55°11' E 014°03'1010.3
2016-Jul-27 13:33N 55°11' E 013°46'1510.4
2016-Jul-27 12:05N 55°13' E 013°19'611.2
2016-Jul-27 11:32N 55°13' E 013°08'1312.8
2016-Jul-27 10:33N 55°16' E 012°47'9 8.5
2016-Jul-27 09:33N 55°23' E 012°39'1010.4
2016-Jul-27 08:33N 55°33' E 012°47'7 7.5
2016-Jul-27 07:33N 55°38' E 012°56'9 9.4
2016-Jul-27 06:33N 55°47' E 012°48'1212.0
2016-Jul-27 05:33N 55°58' E 012°41'1211.6
2016-Jul-27 04:33N 56°08' E 012°29'8 6.9
2016-Jul-27 03:25N 56°15' E 012°23'6 6.9
2016-Jul-27 02:29N 56°21' E 012°23'7 7.8
2016-Jul-27 01:33N 56°28' E 012°23'8 7.7
2016-Jul-27 00:33N 56°36' E 012°23'8 7.9
2016-Jul-26 23:33N 56°44' E 012°23'8 7.7
2016-Jul-26 22:33N 56°51' E 012°18'7 7.0
2016-Jul-26 21:33N 56°57' E 012°11'8 7.6
2016-Jul-26 20:33N 57°03' E 012°04'8 8.4
2016-Jul-26 19:32N 57°11' E 011°56'8 8.2
2016-Jul-26 18:33N 57°18' E 011°48'8 8.4
2016-Jul-26 17:33N 57°25' E 011°42'9 8.9
2016-Jul-26 16:33N 57°34' E 011°40'3 2.8
2016-Jul-26 15:33N 57°35' E 011°35'10 9.7
2016-Jul-26 14:33N 57°38' E 011°17'7 6.6
2016-Jul-26 13:33N 57°39' E 011°05'9 9.1
2016-Jul-26 12:33N 57°44' E 010°51'15312.7
2016-Jul-26 00:32N 55°59' E 007°27'1313.5
2016-Jul-25 23:33N 55°46' E 007°21'1313.0
2016-Jul-25 22:33N 55°33' E 007°23'1413.6
2016-Jul-25 21:33N 55°20' E 007°28'1413.7
2016-Jul-25 20:33N 55°06' E 007°30'1413.8
2016-Jul-25 19:34N 54°52' E 007°30'1313.3
2016-Jul-25 18:33N 54°39' E 007°31'1313.2
2016-Jul-25 17:33N 54°26' E 007°33'1212.5
2016-Jul-25 16:34N 54°14' E 007°36'1312.5
2016-Jul-25 15:34N 54°06' E 007°52'1211.6
2016-Jul-25 14:33N 54°00' E 008°10'1212.2
2016-Jul-25 13:32N 53°58' E 008°31'1211.9
2016-Jul-25 12:33N 53°51' E 008°46'1414.2
2016-Jul-25 11:33N 53°53' E 009°10'1514.6
2016-Jul-25 10:33N 53°43' E 009°28'1413.6
2016-Jul-25 09:34N 53°34' E 009°45'8 8.1
2016-Jul-25 08:33N 53°30' E 009°57'0 0.0
2016-Jul-24 10:28N 53°30' E 009°57'1 0.9
2016-Jul-24 09:33N 53°31' E 009°57'7 6.8
2016-Jul-24 08:33N 53°34' E 009°46'10 9.6
2016-Jul-24 07:33N 53°38' E 009°32'9 9.4
2016-Jul-24 06:33N 53°46' E 009°24'1111.5
2016-Jul-24 05:33N 53°53' E 009°08'1010.1
2016-Jul-24 04:33N 53°50' E 008°51'1110.8
2016-Jul-24 03:33N 53°57' E 008°37'1313.4
2016-Jul-24 02:34N 53°59' E 008°15'6 5.5
2016-Jul-24 01:33N 54°03' E 008°07'0 0.1
2016-Jul-24 00:33N 54°03' E 008°07'0 0.0
2016-Jul-23 23:33N 54°03' E 008°07'0 0.0
2016-Jul-23 22:33N 54°03' E 008°07'0 0.1
2016-Jul-23 21:33N 54°03' E 008°07'0 0.1
2016-Jul-23 20:33N 54°03' E 008°07'0 0.0
2016-Jul-23 19:33N 54°03' E 008°07'0 0.4
2016-Jul-23 18:34N 54°03' E 008°06'10 9.5
2016-Jul-23 17:33N 54°05' E 007°50'1312.9
2016-Jul-23 16:33N 54°12' E 007°32'1313.4
2016-Jul-23 15:33N 54°20' E 007°14'23713.7
2016-Jul-22 22:17N 58°01' E 004°39'1113.6
2016-Jul-22 21:29N 58°12' E 004°33'1313.6
2016-Jul-22 20:34N 58°24' E 004°24'1813.7
2016-Jul-22 19:14N 58°40' E 004°09'913.6
2016-Jul-22 18:33N 58°48' E 004°01'33 0.7
2016-Jul-20 22:25N 59°20' E 004°12'1112.3
2016-Jul-20 21:31N 59°09' E 004°12'1712.7
2016-Jul-20 20:11N 58°52' E 004°13'912.4
2016-Jul-20 19:29N 58°44' E 004°09'1112.2
2016-Jul-20 18:33N 58°32' E 004°08'1312.5
2016-Jul-20 17:30N 58°19' E 004°06'1212.4
2016-Jul-20 16:32N 58°07' E 004°05'1413.0
2016-Jul-20 15:30N 57°54' E 004°03'21311.8
2016-Jul-19 21:26N 54°23' E 005°03'1011.8
2016-Jul-19 20:34N 54°14' E 005°08'1211.9
2016-Jul-19 19:33N 54°02' E 005°06'1312.5
2016-Jul-19 18:33N 53°50' E 004°59'1412.6
2016-Jul-19 17:26N 53°37' E 004°51'1412.8
2016-Jul-19 16:19N 53°24' E 004°41'1013.5
2016-Jul-19 15:33N 53°14' E 004°34'1413.3
2016-Jul-19 14:31N 53°02' E 004°23'1212.8
2016-Jul-19 13:33N 52°51' E 004°14'1110.7
2016-Jul-19 12:32N 52°40' E 004°12'1111.3
2016-Jul-19 11:33N 52°31' E 004°22'1 0.8
2016-Jul-19 10:32N 52°30' E 004°21'0 0.0
2016-Jul-19 09:32N 52°30' E 004°21'0 0.0
2016-Jul-19 08:32N 52°30' E 004°21'0 0.0
2016-Jul-19 07:32N 52°30' E 004°21'0 0.0
2016-Jul-19 04:32N 52°31' E 004°21'0 0.0
2016-Jul-19 03:32N 52°31' E 004°21'0 0.0
2016-Jul-19 02:32N 52°31' E 004°21'0 0.0
2016-Jul-19 01:32N 52°31' E 004°21'0 0.0
2016-Jul-19 00:32N 52°31' E 004°21'0 0.1
2016-Jul-18 23:32N 52°30' E 004°21'0 0.0
2016-Jul-18 22:32N 52°30' E 004°21'0 0.0
2016-Jul-18 21:32N 52°30' E 004°21'0 0.0
2016-Jul-18 20:32N 52°30' E 004°21'0 0.0
2016-Jul-18 19:32N 52°30' E 004°21'0 0.0
2016-Jul-18 18:32N 52°30' E 004°21'0 0.1
2016-Jul-18 17:32N 52°31' E 004°21'0 0.1
2016-Jul-18 16:32N 52°31' E 004°21'0 0.0
2016-Jul-18 15:32N 52°31' E 004°21'0 0.0
2016-Jul-18 14:32N 52°31' E 004°21'0 0.0
2016-Jul-18 13:29N 52°31' E 004°21'0 0.0
2016-Jul-18 12:29N 52°31' E 004°21'0 0.1
2016-Jul-18 11:32N 52°30' E 004°21'0 0.0
2016-Jul-18 10:32N 52°30' E 004°21'0 0.0
2016-Jul-18 09:32N 52°30' E 004°21'0 0.0
2016-Jul-18 08:32N 52°30' E 004°21'0 0.0
2016-Jul-18 07:32N 52°30' E 004°21'0 0.0
2016-Jul-18 06:32N 52°30' E 004°21'0 0.1
2016-Jul-18 05:32N 52°31' E 004°21'0 0.1
2016-Jul-18 04:32N 52°31' E 004°21'0 0.0
2016-Jul-18 03:32N 52°31' E 004°21'  
Track history (hours):
 
Tides and Currents Weather Stations Pressure Air Temp Water Temp Dewpoint Dewpoint Depression Visibility Wind Speed Wind Dir Waves Ship Positions

Fure West

Last reported at 2016-Jul-28 02:33 UTC. Time now 2016-Jul-28 02:59 UTC.
Position N 55°04' E 017°51'.

Length 144 m; draft 6.5 m.

MMSI: 231775000.

Date/timePositionNaut miles runAvg speedWind from/ knotsBaromVisibWave heightAir tempDewpointWater temp
2016-Jul-28 02:33N 55°04' E 017°51'6811.3
2016-Jul-27 20:32N 55°18' E 015°55'1111.1
2016-Jul-27 19:33N 55°20' E 015°36'1111.0
2016-Jul-27 18:34N 55°22' E 015°17'1111.0
2016-Jul-27 17:33N 55°23' E 014°58'1211.8
2016-Jul-27 16:34N 55°21' E 014°37'1312.8
2016-Jul-27 15:34N 55°12' E 014°23'1110.9
2016-Jul-27 14:33N 55°11' E 014°03'1010.3
2016-Jul-27 13:33N 55°11' E 013°46'1510.4
2016-Jul-27 12:05N 55°13' E 013°19'611.2
2016-Jul-27 11:32N 55°13' E 013°08'1312.8
2016-Jul-27 10:33N 55°16' E 012°47'9 8.5
2016-Jul-27 09:33N 55°23' E 012°39'1010.4
2016-Jul-27 08:33N 55°33' E 012°47'7 7.5
2016-Jul-27 07:33N 55°38' E 012°56'9 9.4
2016-Jul-27 06:33N 55°47' E 012°48'1212.0
2016-Jul-27 05:33N 55°58' E 012°41'1211.6
2016-Jul-27 04:33N 56°08' E 012°29'8 6.9
2016-Jul-27 03:25N 56°15' E 012°23'6 6.9
2016-Jul-27 02:29N 56°21' E 012°23'7 7.8
2016-Jul-27 01:33N 56°28' E 012°23'8 7.7
2016-Jul-27 00:33N 56°36' E 012°23'8 7.9
2016-Jul-26 23:33N 56°44' E 012°23'8 7.7
2016-Jul-26 22:33N 56°51' E 012°18'7 7.0
2016-Jul-26 21:33N 56°57' E 012°11'8 7.6
2016-Jul-26 20:33N 57°03' E 012°04'8 8.4
2016-Jul-26 19:32N 57°11' E 011°56'8 8.2
2016-Jul-26 18:33N 57°18' E 011°48'8 8.4
2016-Jul-26 17:33N 57°25' E 011°42'9 8.9
2016-Jul-26 16:33N 57°34' E 011°40'3 2.8
2016-Jul-26 15:33N 57°35' E 011°35'10 9.7
2016-Jul-26 14:33N 57°38' E 011°17'7 6.6
2016-Jul-26 13:33N 57°39' E 011°05'9 9.1
2016-Jul-26 12:33N 57°44' E 010°51'15312.7
2016-Jul-26 00:32N 55°59' E 007°27'1313.5
2016-Jul-25 23:33N 55°46' E 007°21'1313.0
2016-Jul-25 22:33N 55°33' E 007°23'1413.6
2016-Jul-25 21:33N 55°20' E 007°28'1413.7
2016-Jul-25 20:33N 55°06' E 007°30'1413.8
2016-Jul-25 19:34N 54°52' E 007°30'1313.3
2016-Jul-25 18:33N 54°39' E 007°31'1313.2
2016-Jul-25 17:33N 54°26' E 007°33'1212.5
2016-Jul-25 16:34N 54°14' E 007°36'1312.5
2016-Jul-25 15:34N 54°06' E 007°52'1211.6
2016-Jul-25 14:33N 54°00' E 008°10'1212.2
2016-Jul-25 13:32N 53°58' E 008°31'1211.9
2016-Jul-25 12:33N 53°51' E 008°46'1414.2
2016-Jul-25 11:33N 53°53' E 009°10'1514.6
2016-Jul-25 10:33N 53°43' E 009°28'1413.6
2016-Jul-25 09:34N 53°34' E 009°45'8 8.1
2016-Jul-25 08:33N 53°30' E 009°57'0 0.0
2016-Jul-24 10:28N 53°30' E 009°57'1 0.9
2016-Jul-24 09:33N 53°31' E 009°57'7 6.8
2016-Jul-24 08:33N 53°34' E 009°46'10 9.6
2016-Jul-24 07:33N 53°38' E 009°32'9 9.4
2016-Jul-24 06:33N 53°46' E 009°24'1111.5
2016-Jul-24 05:33N 53°53' E 009°08'1010.1
2016-Jul-24 04:33N 53°50' E 008°51'1110.8
2016-Jul-24 03:33N 53°57' E 008°37'1313.4
2016-Jul-24 02:34N 53°59' E 008°15'6 5.5
2016-Jul-24 01:33N 54°03' E 008°07'0 0.1
2016-Jul-24 00:33N 54°03' E 008°07'0 0.0
2016-Jul-23 23:33N 54°03' E 008°07'0 0.0
2016-Jul-23 22:33N 54°03' E 008°07'0 0.1
2016-Jul-23 21:33N 54°03' E 008°07'0 0.1
2016-Jul-23 20:33N 54°03' E 008°07'0 0.0
2016-Jul-23 19:33N 54°03' E 008°07'0 0.4
2016-Jul-23 18:34N 54°03' E 008°06'10 9.5
2016-Jul-23 17:33N 54°05' E 007°50'1312.9
2016-Jul-23 16:33N 54°12' E 007°32'1313.4
2016-Jul-23 15:33N 54°20' E 007°14'23713.7
2016-Jul-22 22:17N 58°01' E 004°39'1113.6
2016-Jul-22 21:29N 58°12' E 004°33'1313.6
2016-Jul-22 20:34N 58°24' E 004°24'1813.7
2016-Jul-22 19:14N 58°40' E 004°09'913.6
2016-Jul-22 18:33N 58°48' E 004°01'33 0.7
2016-Jul-20 22:25N 59°20' E 004°12'1112.3
2016-Jul-20 21:31N 59°09' E 004°12'1712.7
2016-Jul-20 20:11N 58°52' E 004°13'912.4
2016-Jul-20 19:29N 58°44' E 004°09'1112.2
2016-Jul-20 18:33N 58°32' E 004°08'1312.5
2016-Jul-20 17:30N 58°19' E 004°06'1212.4
2016-Jul-20 16:32N 58°07' E 004°05'1413.0
2016-Jul-20 15:30N 57°54' E 004°03'21311.8
2016-Jul-19 21:26N 54°23' E 005°03'1011.8
2016-Jul-19 20:34N 54°14' E 005°08'1211.9
2016-Jul-19 19:33N 54°02' E 005°06'1312.5
2016-Jul-19 18:33N 53°50' E 004°59'1412.6
2016-Jul-19 17:26N 53°37' E 004°51'1412.8
2016-Jul-19 16:19N 53°24' E 004°41'1013.5
2016-Jul-19 15:33N 53°14' E 004°34'1413.3
2016-Jul-19 14:31N 53°02' E 004°23'1212.8
2016-Jul-19 13:33N 52°51' E 004°14'1110.7
2016-Jul-19 12:32N 52°40' E 004°12'1111.3
2016-Jul-19 11:33N 52°31' E 004°22'1 0.8
2016-Jul-19 10:32N 52°30' E 004°21'0 0.0
2016-Jul-19 09:32N 52°30' E 004°21'0 0.0
2016-Jul-19 08:32N 52°30' E 004°21'0 0.0
2016-Jul-19 07:32N 52°30' E 004°21'0 0.0
2016-Jul-19 04:32N 52°31' E 004°21'0 0.0
2016-Jul-19 03:32N 52°31' E 004°21'0 0.0
2016-Jul-19 02:32N 52°31' E 004°21'0 0.0
2016-Jul-19 01:32N 52°31' E 004°21'0 0.0
2016-Jul-19 00:32N 52°31' E 004°21'0 0.1
2016-Jul-18 23:32N 52°30' E 004°21'0 0.0
2016-Jul-18 22:32N 52°30' E 004°21'0 0.0
2016-Jul-18 21:32N 52°30' E 004°21'0 0.0
2016-Jul-18 20:32N 52°30' E 004°21'0 0.0
2016-Jul-18 19:32N 52°30' E 004°21'0 0.0
2016-Jul-18 18:32N 52°30' E 004°21'0 0.1
2016-Jul-18 17:32N 52°31' E 004°21'0 0.1
2016-Jul-18 16:32N 52°31' E 004°21'0 0.0
2016-Jul-18 15:32N 52°31' E 004°21'0 0.0
2016-Jul-18 14:32N 52°31' E 004°21'0 0.0
2016-Jul-18 13:29N 52°31' E 004°21'0 0.0
2016-Jul-18 12:29N 52°31' E 004°21'0 0.1
2016-Jul-18 11:32N 52°30' E 004°21'0 0.0
2016-Jul-18 10:32N 52°30' E 004°21'0 0.0
2016-Jul-18 09:32N 52°30' E 004°21'0 0.0
2016-Jul-18 08:32N 52°30' E 004°21'0 0.0
2016-Jul-18 07:32N 52°30' E 004°21'0 0.0
2016-Jul-18 06:32N 52°30' E 004°21'0 0.1
2016-Jul-18 05:32N 52°31' E 004°21'0 0.1
2016-Jul-18 04:32N 52°31' E 004°21'0 0.0
2016-Jul-18 03:32N 52°31' E 004°21'  

Dump ship's entire track history